0.700 kWh

EHAM AMSTERDAM/SCHIPHOL NLD -3 m.
METAR EHAM 231625Z 22013KT CAVOK 09/04 Q1003 NOSIG

EHAM AMSTERDAM/SCHIPHOL NLD -3 m.
TAF EHAM 231047Z 2312/2418 23022G33KT 9999 SCT025
TEMPO 2312/2313 24025G38KT 6000 SHRA RA SCT015CB BKN018
BECMG 2312/2314 25018G28KT
BECMG 2314/2317 23012KT
BECMG 2323/2402 20006KT 7000 -RA BKN025
PROB30 TEMPO 2402/2406 4500 RA BKN017
BECMG 2404/2407 9999 NSW SCT025 BKN040
TEMPO 2407/2412 7000 -SHRA -RA FEW022CB BKN025